San Saba, Texas
Current Conditions -  °F | °C
As of 1:55 PM on Tuesday 21 Oct 2014 (Local Time) from KAQO Reporting Station
Few Clouds Few Clouds  
Wind Chill: 81°   Ceiling: Unl
Heat Index: 81°   Visibility: 10mi
Dew Point: 57°   Wind: 3mph
Humidity: 45%   Direction: 180°S
Pressure: 30.07"   Gusts: NA
Location:  31.2°N, 98.72°W
Report Text: KAQO 211855Z AUTO 18003KT 10SM FEW044 27/14 A3007 RMK AO2
Loading
Personal Weather Stations






























Interactive Weather Map New forecast layout! Learn more

10-Day Weather Forecast

Advertisements
Track Severe Weather on mobile